Main page
METAR-TAF:

METAR-TAF

Airports :

Oslo Airport. Gardermoen

Oslo, Norway

latitude: 60-12N, longitude: 011-05E, elevation: 208 m

Current weather observation

The report was made 12 minutes ago, at 07:20 UTC
Wind 10 kt from the West, varying between Southwest and North/Northwest
Temperature 15°C
Humidity 44%
Pressure 1010 hPa
Visibility 10 km or more
no clouds below 1500 m and no cumulonimbus

METAR: ENGM 150720Z 26010KT 220V330 CAVOK 15/03 Q1010 NOSIG

Time: 09:32 (07:32 UTC)

Forecast

Forecast valid from 15 at 06 UTC to 16 at 06 UTC
Wind 8 kt from the West/Southwest
Visibility 10 km or more
no clouds below 1500 m and no cumulonimbus
Probability 40% :
Temporary
from 15 at 07 UTC to 15 at 17 UTC
Wind 15 kt from the West/Northwest with gusts up to 25 kt

TAF: ENGM 1506/1606 25008KT CAVOK PROB40 TEMPO 1507/1517 29015G25KT

Weather observations and forecasts of more than 4000 airports (METAR and TAF reports).

The available stations are represented by yellow and red dots on the map.

Hover mouse over dot to see the name of the station.

Then click to see weather observations and forecasts.

To change the map : click on the green buttons with a black cross to zoom in, on the green button with a dash to zoom out, or on the green arrows for adjacent maps.


METAR-TAF: